Time;durP1;ratioP1;P1;durP2;ratioP2;P2;SDS_P1;SDS_P2;PMS_P1;PMS_P2;Temp;Humidity;BMP_temperature;BMP_pressure;BME280_temperature;BME280_humidity;BME280_pressure;Samples;Min_cycle;Max_cycle;Signal;HPM_P1;HPM_P2
2022/12/26 00:00:42;;;;;;;22.10;9.53;;;;;;;6.62;100.00;96923.56;5003648;28;20215;-59
2022/12/26 00:03:08;;;;;;;48.07;10.70;;;;;;;6.59;100.00;96931.63;5003807;28;20209;-58
2022/12/26 00:05:35;;;;;;;57.13;10.43;;;;;;;6.58;100.00;96935.25;5003088;28;20586;-58
2022/12/26 00:08:02;;;;;;;22.37;9.60;;;;;;;6.51;100.00;96934.00;5003218;28;20217;-58
2022/12/26 00:10:30;;;;;;;31.20;9.83;;;;;;;6.43;100.00;96938.97;5002836;28;20648;-58
2022/12/26 00:12:56;;;;;;;72.43;10.63;;;;;;;6.34;100.00;96934.38;5003394;28;20237;-59
2022/12/26 00:15:22;;;;;;;16.33;8.13;;;;;;;6.33;100.00;96930.06;5013440;28;20215;-59
2022/12/26 00:17:49;;;;;;;9.10;8.30;;;;;;;6.28;100.00;96930.41;5027682;28;20199;-57
2022/12/26 00:20:16;;;;;;;8.83;8.03;;;;;;;6.24;100.00;96928.09;5026123;28;20193;-58
2022/12/26 00:22:42;;;;;;;14.73;8.13;;;;;;;6.15;100.00;96940.09;5026911;28;20193;-59
2022/12/26 00:25:09;;;;;;;8.53;7.63;;;;;;;6.16;100.00;96939.16;5017824;28;20193;-58
2022/12/26 00:27:37;;;;;;;29.37;9.37;;;;;;;6.11;100.00;96940.41;5003120;28;20205;-58
2022/12/26 00:30:04;;;;;;;38.63;9.63;;;;;;;6.10;100.00;96943.97;5002839;28;20216;-58
2022/12/26 00:32:30;;;;;;;22.20;8.87;;;;;;;6.13;100.00;96936.72;5002777;28;20633;-58
2022/12/26 00:34:57;;;;;;;13.93;8.70;;;;;;;6.14;100.00;96932.31;5002195;28;20664;-59
2022/12/26 00:37:23;;;;;;;16.83;10.03;;;;;;;6.20;100.00;96937.16;5008564;28;20749;-59
2022/12/26 00:39:50;;;;;;;26.90;10.87;;;;;;;6.17;100.00;96930.31;5015205;28;20209;-58
2022/12/26 00:42:16;;;;;;;11.40;9.30;;;;;;;6.21;100.00;96933.56;5017945;28;20205;-58
2022/12/26 00:44:44;;;;;;;9.60;8.60;;;;;;;6.25;100.00;96928.00;4998669;28;20229;-59
2022/12/26 00:47:10;;;;;;;8.67;7.87;;;;;;;6.28;100.00;96919.88;4993306;28;20522;-58
2022/12/26 00:49:37;;;;;;;9.40;8.50;;;;;;;6.34;100.00;96918.63;4993251;28;20209;-59
2022/12/26 00:52:04;;;;;;;9.20;8.40;;;;;;;6.36;100.00;96908.84;4993016;28;20208;-59
2022/12/26 00:54:30;;;;;;;10.53;9.53;;;;;;;6.37;100.00;96914.00;4991995;28;20251;-59
2022/12/26 00:56:57;;;;;;;12.43;11.23;;;;;;;6.35;100.00;96918.50;4993137;28;20208;-58
2022/12/26 00:59:23;;;;;;;12.30;11.10;;;;;;;6.42;100.00;96922.34;4992785;28;20220;-59
2022/12/26 01:01:51;;;;;;;12.23;11.03;;;;;;;6.44;100.00;96923.09;4992638;28;20209;-59
2022/12/26 01:04:17;;;;;;;12.37;11.17;;;;;;;6.45;100.00;96916.03;4992858;28;20216;-59
2022/12/26 01:06:44;;;;;;;12.07;10.80;;;;;;;6.43;100.00;96910.91;4992594;28;20213;-58
2022/12/26 01:09:13;;;;;;;13.30;11.90;;;;;;;6.43;100.00;96926.66;4991999;28;20243;-59
2022/12/26 01:11:40;;;;;;;12.60;11.30;;;;;;;6.41;100.00;96928.56;4992930;28;20566;-59
2022/12/26 01:14:09;;;;;;;12.50;11.30;;;;;;;6.37;100.00;96921.88;4992890;28;20316;-58
2022/12/26 01:16:35;;;;;;;11.20;10.20;;;;;;;6.39;100.00;96922.59;4992388;28;20224;-59
2022/12/26 01:19:03;;;;;;;10.93;9.63;;;;;;;6.35;100.00;96921.13;4992391;28;20305;-59
2022/12/26 01:21:29;;;;;;;10.67;9.67;;;;;;;6.41;100.00;96922.50;4992027;28;20653;-59
2022/12/26 01:23:56;;;;;;;10.13;9.13;;;;;;;6.40;100.00;96923.44;4992002;28;20217;-58
2022/12/26 01:26:22;;;;;;;9.20;8.40;;;;;;;6.50;100.00;96929.69;4992873;28;20213;-59
2022/12/26 01:28:50;;;;;;;9.80;8.90;;;;;;;6.56;100.00;96928.41;4992770;28;20205;-58
2022/12/26 01:31:17;;;;;;;9.67;8.67;;;;;;;6.70;100.00;96918.56;4996798;28;20209;-59
2022/12/26 01:33:44;;;;;;;9.43;8.57;;;;;;;6.86;100.00;96928.78;4996983;28;20217;-59
2022/12/26 01:36:12;;;;;;;10.10;9.10;;;;;;;6.95;100.00;96935.97;4998578;28;20235;-59
2022/12/26 01:38:38;;;;;;;10.70;8.60;;;;;;;7.01;100.00;96925.84;5002426;28;20212;-59
2022/12/26 01:41:18;;;;;;;9.87;8.10;;;;;;;7.09;100.00;96924.44;5002293;28;20212;-58
2022/12/26 01:43:52;;;;;;;8.50;7.60;;;;;;;7.25;100.00;96928.44;5005548;28;20243;-58
2022/12/26 01:46:21;;;;;;;8.23;7.53;;;;;;;7.40;100.00;96936.97;5009115;28;20548;-58
2022/12/26 01:48:48;;;;;;;8.73;7.93;;;;;;;7.51;100.00;96940.44;5001872;28;20571;-58
2022/12/26 01:51:16;;;;;;;9.37;8.37;;;;;;;7.58;100.00;96938.19;5001016;28;20207;-58
2022/12/26 01:53:45;;;;;;;8.27;7.47;;;;;;;7.67;100.00;96939.28;5001724;28;20216;-58
2022/12/26 01:56:15;;;;;;;8.30;7.50;;;;;;;7.74;100.00;96946.59;5000563;28;20537;-59
2022/12/26 01:58:46;;;;;;;8.50;7.60;;;;;;;7.85;100.00;96943.97;5001752;28;20205;-58
2022/12/26 02:01:13;;;;;;;8.83;7.93;;;;;;;8.02;100.00;96943.50;5001536;28;20215;-60
2022/12/26 02:06:27;;;;;;;8.87;7.67;;;;;;;8.18;100.00;96940.50;5001189;28;20206;-59
2022/12/26 02:08:54;;;;;;;8.60;7.70;;;;;;;8.24;100.00;96934.75;5000839;28;20215;-58
2022/12/26 02:11:25;;;;;;;9.87;8.37;;;;;;;8.35;100.00;96944.47;5001678;28;20215;-58
2022/12/26 02:13:52;;;;;;;9.10;8.07;;;;;;;8.36;100.00;96939.06;5003183;28;20211;-59
2022/12/26 02:16:19;;;;;;;9.80;8.80;;;;;;;8.49;100.00;96937.13;5003257;28;20229;-59
2022/12/26 02:18:45;;;;;;;9.10;8.17;;;;;;;8.53;100.00;96935.09;5002499;28;20209;-58
2022/12/26 02:21:49;;;;;;;9.57;8.67;;;;;;;8.62;100.00;96929.06;5002864;28;20204;-59
2022/12/26 02:24:41;;;;;;;8.97;8.07;;;;;;;8.70;100.00;96924.00;5002057;28;20217;-59
2022/12/26 02:27:32;;;;;;;9.07;8.20;;;;;;;8.69;100.00;96922.34;4998890;28;20219;-59
2022/12/26 02:30:08;;;;;;;8.77;7.87;;;;;;;8.67;100.00;96921.63;5000968;28;20549;-59
2022/12/26 02:33:05;;;;;;;8.97;8.07;;;;;;;8.69;100.00;96930.25;5005278;28;20212;-59
2022/12/26 02:35:41;;;;;;;9.33;8.43;;;;;;;8.73;100.00;96926.41;4996868;28;20260;-58
2022/12/26 02:38:18;;;;;;;8.67;7.87;;;;;;;8.78;100.00;96932.16;5005258;28;20204;-58
2022/12/26 02:40:52;;;;;;;9.10;8.30;;;;;;;8.84;100.00;96923.72;5005239;28;20200;-57
2022/12/26 02:43:23;;;;;;;8.80;7.90;;;;;;;8.87;100.00;96934.03;5004309;28;20243;-58
2022/12/26 02:48:45;;;;;;;8.90;8.03;;;;;;;8.93;100.00;96938.78;5005008;28;20323;-58
2022/12/26 03:13:48;;;;;;;9.50;8.50;;;;;;;8.81;100.00;96955.63;5004165;28;20280;-59
2022/12/26 03:19:03;;;;;;;9.80;8.80;;;;;;;8.83;100.00;96948.41;5004250;28;20651;-58
2022/12/26 03:21:35;;;;;;;10.73;9.63;;;;;;;8.88;100.00;96953.31;5004227;28;20201;-58
2022/12/26 03:24:02;;;;;;;10.93;9.53;;;;;;;8.97;100.00;96965.75;5003742;28;20232;-58
2022/12/26 03:26:39;;;;;;;10.87;9.27;;;;;;;9.06;100.00;96953.63;5004355;28;20209;-58
2022/12/26 03:31:51;;;;;;;10.43;9.33;;;;;;;9.13;100.00;96952.16;5004223;28;20671;-57
2022/12/26 03:34:18;;;;;;;10.63;9.53;;;;;;;9.17;100.00;96948.28;5004548;28;20209;-58
2022/12/26 03:36:55;;;;;;;9.80;8.80;;;;;;;9.17;100.00;96941.22;5004228;28;20553;-58
2022/12/26 04:19:22;;;;;;;12.57;9.47;;;;;;;9.20;100.00;96934.84;5003632;28;20553;-59
2022/12/26 04:44:04;;;;;;;8.53;6.70;;;;;;;9.42;100.00;96953.22;5000237;28;20276;-57
2022/12/26 04:46:33;;;;;;;7.67;6.77;;;;;;;9.45;100.00;96940.59;4994387;28;20263;-58
2022/12/26 04:51:44;;;;;;;6.93;6.13;;;;;;;9.51;100.00;96918.09;4993091;28;20212;-58
2022/12/26 04:54:10;;;;;;;6.37;5.77;;;;;;;9.49;100.00;96922.69;4991521;28;20205;-60
2022/12/26 04:56:37;;;;;;;6.73;5.53;;;;;;;9.52;100.00;96913.66;4992785;28;20221;-57
2022/12/26 04:59:05;;;;;;;7.87;6.50;;;;;;;9.52;100.00;96917.16;4993107;28;20209;-58
2022/12/26 05:09:47;;;;;;;7.00;6.30;;;;;;;9.59;100.00;96926.22;4992487;28;20552;-57
2022/12/26 05:12:14;;;;;;;7.80;7.00;;;;;;;9.75;100.00;96926.59;4992189;28;20645;-57
2022/12/26 05:14:42;;;;;;;7.67;6.97;;;;;;;9.70;100.00;96920.88;4992298;28;20213;-58
2022/12/26 05:28:41;;;;;;;6.83;6.23;;;;;;;9.62;100.00;96941.81;4991013;28;20651;-57
2022/12/26 05:31:09;;;;;;;7.43;6.60;;;;;;;9.60;100.00;96935.81;4992548;28;20209;-57
2022/12/26 05:36:21;;;;;;;6.87;6.20;;;;;;;9.58;100.00;96929.81;4992126;28;20259;-58
2022/12/26 05:38:48;;;;;;;6.90;6.27;;;;;;;9.66;100.00;96937.94;4992039;28;20205;-57
2022/12/26 05:41:15;;;;;;;6.57;5.77;;;;;;;9.62;100.00;96931.25;4994396;28;20209;-57
2022/12/26 05:43:43;;;;;;;7.30;5.87;;;;;;;9.66;100.00;96932.66;4996680;28;20237;-58
2022/12/26 05:46:11;;;;;;;6.63;5.90;;;;;;;9.63;100.00;96938.22;5005947;28;20201;-58
2022/12/26 05:48:37;;;;;;;6.23;5.67;;;;;;;9.66;100.00;96937.94;5007999;28;20269;-58
2022/12/26 05:51:04;;;;;;;6.57;5.87;;;;;;;9.68;100.00;96933.34;5004747;28;20216;-58
2022/12/26 05:53:31;;;;;;;7.20;6.07;;;;;;;9.68;100.00;96943.91;4999466;28;20220;-58
2022/12/26 05:56:02;;;;;;;5.67;5.13;;;;;;;9.68;100.00;96953.63;4993618;28;20225;-57
2022/12/26 05:58:30;;;;;;;5.83;5.37;;;;;;;9.68;100.00;96949.19;4992180;28;20232;-57
2022/12/26 06:01:05;;;;;;;6.67;5.97;;;;;;;9.76;100.00;96938.00;5004908;28;20208;-57
2022/12/26 06:03:32;;;;;;;5.83;5.30;;;;;;;9.78;100.00;96939.53;5015868;28;20199;-57
2022/12/26 06:05:59;;;;;;;5.97;5.47;;;;;;;9.81;100.00;96939.25;5015421;28;20207;-59
2022/12/26 06:08:25;;;;;;;6.23;5.43;;;;;;;9.80;100.00;96934.13;5006111;28;20548;-57
2022/12/26 06:10:52;;;;;;;6.57;5.40;;;;;;;9.79;100.00;96938.56;4992074;28;20206;-57
2022/12/26 06:13:18;;;;;;;5.60;4.93;;;;;;;9.89;100.00;96933.31;4992385;28;20216;-57
2022/12/26 06:15:45;;;;;;;5.83;5.23;;;;;;;9.86;100.00;96926.50;4991435;28;20240;-57
2022/12/26 06:18:11;;;;;;;5.40;4.83;;;;;;;9.84;100.00;96920.53;4992000;28;20201;-62
2022/12/26 06:20:39;;;;;;;7.83;6.03;;;;;;;9.90;100.00;96930.56;4992271;28;20217;-58
2022/12/26 06:23:06;;;;;;;5.73;5.13;;;;;;;9.89;100.00;96918.31;4991807;28;20205;-57
2022/12/26 06:25:32;;;;;;;6.37;5.07;;;;;;;9.90;100.00;96929.72;4991359;28;20216;-57
2022/12/26 06:27:59;;;;;;;5.20;4.80;;;;;;;9.89;100.00;96934.16;4996925;28;20205;-59
2022/12/26 06:30:25;;;;;;;4.70;4.37;;;;;;;9.93;100.00;96935.56;5015238;28;20199;-57
2022/12/26 06:32:52;;;;;;;5.07;4.63;;;;;;;9.91;100.00;96937.53;5015414;28;20177;-57
2022/12/26 06:35:18;;;;;;;5.03;4.47;;;;;;;9.89;100.00;96939.44;5016996;28;20799;-57
2022/12/26 06:37:46;;;;;;;4.97;4.47;;;;;;;9.89;100.00;96936.81;5012303;28;20237;-57
2022/12/26 06:40:13;;;;;;;5.23;4.77;;;;;;;9.90;100.00;96941.13;4991311;28;20637;-58
2022/12/26 06:42:39;;;;;;;5.33;4.83;;;;;;;9.95;100.00;96936.28;4991373;28;20220;-57
2022/12/26 06:45:06;;;;;;;4.97;4.47;;;;;;;9.95;100.00;96930.97;5000119;28;20232;-57
2022/12/26 06:47:33;;;;;;;5.20;4.80;;;;;;;9.98;100.00;96925.47;5001136;28;20197;-57
2022/12/26 06:49:59;;;;;;;4.90;4.50;;;;;;;9.98;100.00;96925.47;5001150;28;20205;-57
2022/12/26 06:52:25;;;;;;;4.90;4.40;;;;;;;10.04;100.00;96921.44;5000918;28;20204;-57
2022/12/26 06:54:53;;;;;;;5.00;4.30;;;;;;;9.99;100.00;96929.75;5000328;28;20204;-58
2022/12/26 06:57:20;;;;;;;4.90;4.50;;;;;;;9.99;100.00;96929.75;5000627;28;20510;-58
2022/12/26 06:59:46;;;;;;;4.93;4.50;;;;;;;10.00;100.00;96922.66;5001218;28;20249;-57
2022/12/26 07:02:13;;;;;;;4.90;4.40;;;;;;;10.02;100.00;96917.25;5001587;28;20197;-57
2022/12/26 07:04:39;;;;;;;4.87;4.47;;;;;;;10.00;100.00;96910.31;5002272;28;20208;-57
2022/12/26 07:07:06;;;;;;;4.90;4.40;;;;;;;10.05;100.00;96917.00;5004912;28;20207;-58
2022/12/26 07:09:32;;;;;;;5.43;4.43;;;;;;;10.14;100.00;96905.63;5004334;28;20603;-58
2022/12/26 07:12:00;;;;;;;4.60;4.20;;;;;;;10.16;100.00;96914.28;5003102;28;20632;-58
2022/12/26 07:14:26;;;;;;;4.90;4.40;;;;;;;10.14;100.00;96913.53;5003182;28;20221;-58
2022/12/26 07:16:53;;;;;;;4.30;3.90;;;;;;;10.16;100.00;96919.56;5000598;28;20232;-58
2022/12/26 07:19:19;;;;;;;4.17;3.87;;;;;;;10.15;100.00;96916.09;5003960;28;20213;-58
2022/12/26 07:21:46;;;;;;;4.67;4.27;;;;;;;10.15;100.00;96910.81;5004626;28;21372;-57
2022/12/26 07:24:14;;;;;;;4.77;4.27;;;;;;;10.21;100.00;96912.06;5005689;28;20208;-57
2022/12/26 07:26:41;;;;;;;4.07;3.77;;;;;;;10.23;100.00;96910.16;5007566;28;20196;-57
2022/12/26 07:29:11;;;;;;;4.90;4.50;;;;;;;10.18;100.00;96905.25;5007200;28;20212;-58
2022/12/26 07:31:38;;;;;;;7.30;4.40;;;;;;;10.26;100.00;96909.88;5007746;28;20588;-58
2022/12/26 07:34:04;;;;;;;4.10;3.80;;;;;;;10.26;100.00;96902.78;5009932;28;20212;-58
2022/12/26 07:36:31;;;;;;;4.20;3.90;;;;;;;10.30;100.00;96895.41;5012432;28;20224;-57
2022/12/26 07:38:58;;;;;;;5.77;4.10;;;;;;;10.34;100.00;96912.69;5011907;28;20223;-57
2022/12/26 07:44:10;;;;;;;4.73;4.27;;;;;;;10.41;100.00;96904.09;4994204;28;20664;-57
2022/12/26 07:46:36;;;;;;;5.00;4.17;;;;;;;10.43;100.00;96917.16;5004195;28;20659;-58
2022/12/26 07:49:03;;;;;;;4.33;3.93;;;;;;;10.43;100.00;96919.78;5003819;28;20201;-57
2022/12/26 07:51:30;;;;;;;4.30;3.97;;;;;;;10.43;100.00;96928.56;4986549;28;20204;-58
2022/12/26 07:53:56;;;;;;;4.33;3.93;;;;;;;10.41;100.00;96924.41;5003299;28;20212;-58
2022/12/26 07:56:22;;;;;;;4.30;3.90;;;;;;;10.38;100.00;96920.19;5003260;28;20224;-57
2022/12/26 07:58:49;;;;;;;4.30;3.90;;;;;;;10.41;100.00;96908.53;5003555;28;20208;-58
2022/12/26 08:01:17;;;;;;;4.37;3.97;;;;;;;10.43;100.00;96918.00;5003361;28;20649;-57
2022/12/26 08:03:44;;;;;;;4.50;4.10;;;;;;;10.41;100.00;96913.81;5002807;28;20565;-57
2022/12/26 08:06:11;;;;;;;3.70;3.40;;;;;;;10.49;100.00;96906.03;5003317;28;20205;-57
2022/12/26 08:08:38;;;;;;;4.13;3.83;;;;;;;10.51;100.00;96914.66;5003653;28;20200;-58
2022/12/26 08:11:06;;;;;;;4.93;4.30;;;;;;;10.56;100.00;96924.84;5002945;28;20421;-57
2022/12/26 08:13:33;;;;;;;4.50;4.10;;;;;;;10.59;100.00;96921.94;5005421;28;20200;-58
2022/12/26 08:15:59;;;;;;;4.07;3.77;;;;;;;10.64;100.00;96931.13;5008004;28;20196;-59
2022/12/26 08:18:27;;;;;;;5.40;4.00;;;;;;;10.66;100.00;96923.06;5014444;28;20224;-58
2022/12/26 08:20:55;;;;;;;5.70;4.00;;;;;;;10.69;100.00;96923.63;5011858;28;20205;-57
2022/12/26 08:23:21;;;;;;;5.43;3.87;;;;;;;10.72;100.00;96928.63;5004265;28;20212;-58
2022/12/26 08:25:48;;;;;;;4.30;4.00;;;;;;;10.73;100.00;96919.72;5002941;28;20216;-58
2022/12/26 08:28:14;;;;;;;5.47;4.30;;;;;;;10.81;100.00;96917.22;5003364;28;20304;-57
2022/12/26 08:30:41;;;;;;;4.77;4.00;;;;;;;10.81;100.00;96917.22;5002947;28;20300;-57
2022/12/26 08:33:08;;;;;;;4.30;3.83;;;;;;;10.89;100.00;96921.81;5003002;28;20209;-57
2022/12/26 08:35:37;;;;;;;3.90;3.57;;;;;;;10.91;100.00;96918.06;5002687;28;20208;-57
2022/12/26 08:38:04;;;;;;;4.30;3.70;;;;;;;10.95;100.00;96914.16;5002920;28;20225;-57
2022/12/26 08:40:31;;;;;;;4.53;3.70;;;;;;;11.02;100.00;96924.22;5002512;28;20210;-57
2022/12/26 08:42:57;;;;;;;4.30;3.90;;;;;;;11.09;100.00;96920.84;5002041;28;20205;-58
2022/12/26 08:45:24;;;;;;;4.10;3.70;;;;;;;11.14;100.00;96926.56;4993122;28;20212;-57
2022/12/26 08:47:51;;;;;;;5.67;4.17;;;;;;;11.17;100.00;96936.03;4992991;28;20197;-58
2022/12/26 08:50:17;;;;;;;3.77;3.40;;;;;;;11.26;100.00;96932.56;4993445;28;20212;-56
2022/12/26 08:52:48;;;;;;;3.33;3.13;;;;;;;11.31;100.00;96930.31;4993506;28;21291;-58
2022/12/26 08:55:16;;;;;;;4.93;4.13;;;;;;;11.30;100.00;96928.66;4992779;28;20252;-57
2022/12/26 08:57:42;;;;;;;4.50;3.70;;;;;;;11.43;100.00;96929.19;4993032;28;20221;-57
2022/12/26 09:00:10;;;;;;;3.87;3.50;;;;;;;11.56;100.00;96929.72;4992446;28;21380;-58
2022/12/26 09:02:37;;;;;;;4.70;3.57;;;;;;;11.64;99.18;96927.22;4992554;28;20217;-58
2022/12/26 09:05:04;;;;;;;3.97;3.57;;;;;;;11.79;99.13;96952.31;4993140;28;20220;-57
2022/12/26 09:07:30;;;;;;;4.37;3.10;;;;;;;11.84;99.17;96939.47;4993054;28;20205;-58
2022/12/26 09:10:00;;;;;;;3.97;3.57;;;;;;;11.81;99.49;96942.41;4992734;28;20213;-57
2022/12/26 09:12:26;;;;;;;3.70;3.40;;;;;;;11.91;98.86;96950.31;4992338;28;20299;-57
2022/12/26 09:14:53;;;;;;;3.57;3.27;;;;;;;12.02;98.62;96941.34;4992783;28;20525;-57
2022/12/26 09:17:19;;;;;;;3.70;3.17;;;;;;;12.07;98.08;96941.78;4993119;28;20233;-57
2022/12/26 09:19:46;;;;;;;4.60;3.63;;;;;;;12.14;97.54;96950.81;4993175;28;20219;-58
2022/12/26 09:24:58;;;;;;;5.07;3.60;;;;;;;12.12;96.60;96966.00;4992113;28;20661;-58
2022/12/26 09:27:25;;;;;;;4.53;3.30;;;;;;;11.97;95.79;96969.13;4992967;28;20206;-57
2022/12/26 09:29:51;;;;;;;4.10;3.30;;;;;;;11.99;96.17;96982.25;4992013;28;20224;-58
2022/12/26 09:32:18;;;;;;;4.00;3.70;;;;;;;11.81;97.00;96971.53;4992107;28;20706;-57
2022/12/26 09:34:44;;;;;;;3.57;3.27;;;;;;;11.65;97.98;96965.97;4992505;28;20209;-58
2022/12/26 09:37:10;;;;;;;3.50;3.20;;;;;;;11.58;98.65;96980.78;4992220;28;20236;-58
2022/12/26 09:39:39;;;;;;;3.90;3.60;;;;;;;11.53;99.44;96988.28;4991675;28;20216;-57
2022/12/26 09:42:16;;;;;;;5.10;3.70;;;;;;;11.46;100.00;96980.06;4992109;28;20201;-57
2022/12/26 09:44:48;;;;;;;4.07;3.70;;;;;;;11.45;100.00;96996.09;4999563;28;20251;-57
2022/12/26 09:47:22;;;;;;;4.80;3.57;;;;;;;11.41;100.00;96990.22;5001657;28;20197;-57
2022/12/26 09:49:53;;;;;;;3.20;3.00;;;;;;;11.41;100.00;97007.94;5001924;28;20209;-57
2022/12/26 09:52:24;;;;;;;3.90;3.50;;;;;;;11.33;100.00;97007.81;5000979;28;20274;-58
2022/12/26 09:54:53;;;;;;;3.97;3.57;;;;;;;11.26;100.00;97006.69;5001153;28;20219;-56
2022/12/26 09:57:25;;;;;;;4.63;3.93;;;;;;;11.24;100.00;97024.50;5001348;28;20236;-57
2022/12/26 09:59:56;;;;;;;4.27;3.80;;;;;;;11.22;100.00;97026.47;5000678;28;20643;-56
2022/12/26 10:02:24;;;;;;;3.47;3.27;;;;;;;11.13;100.00;97027.28;5000825;28;20286;-58
2022/12/26 10:04:51;;;;;;;7.37;4.03;;;;;;;11.14;100.00;97056.28;5001190;28;20220;-59
2022/12/26 10:07:25;;;;;;;4.10;3.80;;;;;;;11.09;100.00;97047.88;5001222;28;20196;-57
2022/12/26 10:09:58;;;;;;;4.33;3.93;;;;;;;11.05;100.00;97045.66;5000992;28;20196;-57
2022/12/26 10:12:36;;;;;;;3.80;3.50;;;;;;;11.03;100.00;97058.19;5001024;28;20197;-58
2022/12/26 10:15:13;;;;;;;4.47;3.87;;;;;;;10.96;100.00;97053.44;5002054;28;20299;-58
2022/12/26 10:17:44;;;;;;;4.30;3.90;;;;;;;11.05;100.00;97048.31;5002490;28;20227;-58
2022/12/26 10:20:18;;;;;;;4.00;3.60;;;;;;;10.99;100.00;97049.69;5001378;28;20209;-58
2022/12/26 10:23:01;;;;;;;4.77;4.00;;;;;;;10.99;100.00;97039.09;5002714;28;20201;-59
2022/12/26 10:25:35;;;;;;;5.87;4.17;;;;;;;10.96;100.00;97042.84;5002126;28;20303;-58
2022/12/26 10:28:04;;;;;;;4.17;3.77;;;;;;;10.96;100.00;97037.56;5003170;28;20192;-58
2022/12/26 10:30:35;;;;;;;4.40;4.00;;;;;;;10.98;100.00;97035.59;5003015;28;20746;-58
2022/12/26 10:33:09;;;;;;;4.97;3.93;;;;;;;10.97;100.00;97043.69;5002903;28;20618;-58
2022/12/26 10:35:39;;;;;;;4.20;3.80;;;;;;;10.95;100.00;97054.41;5002307;28;20215;-57
2022/12/26 10:38:11;;;;;;;4.47;4.00;;;;;;;11.03;100.00;97060.81;5001424;28;20257;-57
2022/12/26 10:40:40;;;;;;;5.33;4.03;;;;;;;11.11;100.00;97061.84;5001181;28;20586;-57
2022/12/26 10:43:20;;;;;;;4.93;3.73;;;;;;;11.10;100.00;97069.91;5000272;28;20240;-57
2022/12/26 10:45:51;;;;;;;4.30;3.90;;;;;;;11.17;100.00;97073.69;4991074;28;20204;-57
2022/12/26 10:48:18;;;;;;;4.93;3.90;;;;;;;11.12;100.00;97074.09;4991067;28;20205;-58
2022/12/26 10:50:48;;;;;;;5.97;3.87;;;;;;;11.14;100.00;97073.94;4991697;28;20250;-58
2022/12/26 10:53:15;;;;;;;4.57;3.97;;;;;;;11.13;100.00;97090.81;4994895;28;20213;-58
2022/12/26 10:55:42;;;;;;;4.40;3.90;;;;;;;11.16;100.00;97093.19;4994404;28;20637;-58
2022/12/26 10:58:18;;;;;;;3.97;3.53;;;;;;;11.12;100.00;97084.69;4994942;28;20225;-58
2022/12/26 11:00:44;;;;;;;5.00;3.97;;;;;;;11.25;100.00;97106.44;4995105;28;20552;-57
2022/12/26 11:03:12;;;;;;;4.43;4.03;;;;;;;11.16;100.00;97106.44;4994782;28;20216;-59
2022/12/26 11:05:40;;;;;;;4.70;4.30;;;;;;;11.13;100.00;97104.03;4994805;28;20202;-58
2022/12/26 11:08:09;;;;;;;6.63;4.50;;;;;;;11.20;100.00;97113.09;4994685;28;20206;-58
2022/12/26 11:10:36;;;;;;;5.03;4.27;;;;;;;11.22;100.00;97103.25;4994339;28;20280;-57
2022/12/26 11:13:06;;;;;;;5.97;4.57;;;;;;;11.16;100.00;97109.09;4993504;28;21284;-58
2022/12/26 11:15:36;;;;;;;10.80;4.43;;;;;;;11.14;100.00;97103.06;4994814;28;20215;-58
2022/12/26 11:18:08;;;;;;;4.90;4.40;;;;;;;11.09;100.00;97107.94;4994489;28;20232;-56
2022/12/26 11:20:35;;;;;;;6.40;4.47;;;;;;;11.04;100.00;97112.78;4994415;28;20213;-58
2022/12/26 11:23:23;;;;;;;8.47;4.47;;;;;;;10.99;100.00;97103.44;4994334;28;20201;-57
2022/12/26 11:25:51;;;;;;;6.50;4.23;;;;;;;10.92;100.00;97099.66;4993701;28;20212;-58
2022/12/26 11:28:26;;;;;;;4.33;4.03;;;;;;;10.88;100.00;97095.59;4994468;28;20201;-57
2022/12/26 11:30:57;;;;;;;4.83;4.30;;;;;;;10.84;100.00;97093.38;4994030;28;20201;-58
2022/12/26 11:33:25;;;;;;;6.87;4.40;;;;;;;10.84;100.00;97090.75;4994361;28;20618;-57
2022/12/26 11:36:03;;;;;;;5.07;4.17;;;;;;;10.80;100.00;97084.88;4994257;28;20220;-58
2022/12/26 11:38:38;;;;;;;4.43;4.03;;;;;;;10.75;100.00;97108.22;4994193;28;20240;-59
2022/12/26 11:43:57;;;;;;;4.53;4.13;;;;;;;10.72;100.00;97103.22;4989899;28;20572;-57
2022/12/26 11:46:33;;;;;;;5.30;4.53;;;;;;;10.68;100.00;97112.38;4994436;28;20212;-57
2022/12/26 11:49:00;;;;;;;4.60;4.20;;;;;;;10.63;100.00;97098.69;4993725;28;20204;-57
2022/12/26 11:51:39;;;;;;;5.13;4.03;;;;;;;10.69;100.00;97098.19;4994082;28;20220;-57
2022/12/26 11:54:24;;;;;;;4.33;4.00;;;;;;;10.62;100.00;97091.75;4993730;28;20589;-58
2022/12/26 11:57:17;;;;;;;4.90;4.30;;;;;;;10.57;100.00;97093.94;4993421;28;21432;-57
2022/12/26 11:59:43;;;;;;;4.63;4.23;;;;;;;10.51;100.00;97099.78;4994138;28;20538;-57
2022/12/26 12:02:25;;;;;;;6.37;4.97;;;;;;;10.57;100.00;97093.09;4993857;28;20633;-57
2022/12/26 12:04:54;;;;;;;6.00;5.03;;;;;;;10.55;100.00;97095.91;4997954;28;20244;-57
2022/12/26 12:07:36;;;;;;;4.80;4.40;;;;;;;10.54;100.00;97094.22;5007262;28;20205;-57
2022/12/26 12:10:07;;;;;;;5.83;4.50;;;;;;;10.57;100.00;97101.88;5017044;28;20253;-57
2022/12/26 12:12:38;;;;;;;6.37;4.67;;;;;;;10.56;100.00;97105.47;5017489;28;20257;-58
2022/12/26 12:15:11;;;;;;;4.30;3.90;;;;;;;10.58;100.00;97100.06;5002627;28;20656;-57
2022/12/26 12:17:48;;;;;;;5.47;4.07;;;;;;;10.58;100.00;97119.44;4993483;28;21540;-57
2022/12/26 12:20:29;;;;;;;4.80;4.30;;;;;;;10.53;100.00;97099.63;4994145;28;20216;-57
2022/12/26 12:23:13;;;;;;;3.97;3.50;;;;;;;10.53;100.00;97108.41;4993576;28;20233;-57
2022/12/26 12:25:46;;;;;;;3.97;3.67;;;;;;;10.47;100.00;97103.66;4993270;28;20208;-58
2022/12/26 12:28:30;;;;;;;4.60;3.27;;;;;;;10.44;100.00;97102.09;4993926;28;20201;-57
2022/12/26 12:31:04;;;;;;;4.43;3.50;;;;;;;10.43;100.00;97108.34;4994128;28;20193;-58
2022/12/26 12:33:41;;;;;;;4.13;3.77;;;;;;;10.43;100.00;97103.06;4998053;28;20216;-57
2022/12/26 12:36:10;;;;;;;4.00;3.60;;;;;;;10.39;100.00;97099.00;5012324;28;20189;-58
2022/12/26 12:38:51;;;;;;;3.87;3.57;;;;;;;10.40;100.00;97102.50;5011714;28;20225;-59
2022/12/26 12:41:40;;;;;;;4.97;3.53;;;;;;;10.39;100.00;97098.16;5013377;28;20204;-59
2022/12/26 12:44:13;;;;;;;3.83;3.50;;;;;;;10.41;100.00;97096.25;4997591;28;20567;-60
2022/12/26 12:46:48;;;;;;;3.67;3.37;;;;;;;10.38;100.00;97088.56;4994580;28;20562;-58
2022/12/26 12:49:24;;;;;;;3.20;2.90;;;;;;;10.33;100.00;97090.75;5002380;28;20216;-58
2022/12/26 12:51:57;;;;;;;3.03;2.83;;;;;;;10.37;100.00;97089.53;4997057;28;20204;-59
2022/12/26 12:54:43;;;;;;;4.10;3.20;;;;;;;10.32;100.00;97083.78;4995849;28;20208;-58
2022/12/26 12:57:14;;;;;;;3.80;3.10;;;;;;;10.30;100.00;97091.03;5003285;28;20211;-59
2022/12/26 12:59:46;;;;;;;2.57;2.37;;;;;;;10.31;100.00;97098.81;5002283;28;20214;-59
2022/12/26 13:02:18;;;;;;;1.70;1.60;;;;;;;10.31;100.00;97108.53;5000314;28;20209;-58
2022/12/26 13:04:49;;;;;;;2.90;1.87;;;;;;;10.28;100.00;97106.16;5006240;28;20204;-60
2022/12/26 13:07:20;;;;;;;1.93;1.70;;;;;;;10.22;100.00;97094.31;4993923;28;20216;-60
2022/12/26 13:09:50;;;;;;;2.43;2.23;;;;;;;10.22;100.00;97090.84;4993487;28;20197;-60
2022/12/26 13:12:19;;;;;;;1.97;1.87;;;;;;;10.19;100.00;97093.75;4994132;28;20625;-59
2022/12/26 13:14:49;;;;;;;1.80;1.70;;;;;;;10.21;100.00;97097.06;4992238;28;20201;-58
2022/12/26 13:17:20;;;;;;;1.73;1.63;;;;;;;10.17;100.00;97085.94;4998616;28;20198;-58
2022/12/26 13:19:51;;;;;;;3.00;2.30;;;;;;;10.19;100.00;97110.44;5010639;28;20199;-59
2022/12/26 13:22:25;;;;;;;1.83;1.73;;;;;;;10.18;100.00;97099.97;5008461;28;20201;-58
2022/12/26 13:24:53;;;;;;;1.53;1.43;;;;;;;10.16;100.00;97099.28;5002169;28;20629;-58
2022/12/26 13:27:22;;;;;;;1.13;1.10;;;;;;;10.17;100.00;97087.72;4994968;28;20235;-57
2022/12/26 13:29:49;;;;;;;1.60;1.40;;;;;;;10.16;100.00;97088.72;4993902;28;20216;-58
2022/12/26 13:32:22;;;;;;;1.67;1.30;;;;;;;10.13;100.00;97089.75;4993984;28;20233;-57
2022/12/26 13:34:52;;;;;;;1.00;1.00;;;;;;;10.10;100.00;97087.38;4994250;28;20216;-58
2022/12/26 13:37:54;;;;;;;1.60;1.50;;;;;;;10.05;100.00;97080.81;4993777;28;20205;-59
2022/12/26 13:40:22;;;;;;;1.67;1.57;;;;;;;10.06;100.00;97077.22;4993090;28;20201;-58
2022/12/26 13:45:57;;;;;;;1.40;1.30;;;;;;;10.12;100.00;97074.03;4991258;28;20287;-59
2022/12/26 13:49:06;;;;;;;1.50;1.37;;;;;;;10.06;100.00;97082.50;4992670;28;20288;-58
2022/12/26 13:51:59;;;;;;;1.40;1.30;;;;;;;10.05;100.00;97088.75;4992029;28;20213;-58